Baghdad, Iraq
Current Conditions -  °F | °C
As of 6:00 AM on Wednesday 22 Oct 2014 (Local Time) from ORBI Reporting Station
Clear Clear  
Wind Chill: 54°   Ceiling: Unl
Heat Index: 54°   Visibility: 6mi
Dew Point: 45°   Wind: 3mph
Humidity: 72%   Direction: 140°SE
Pressure: 30.12"   Gusts: NA
Location:  33.33°N, 44.44°E
Report Text: ORBI 220300Z 14003KT CAVOK 12/07 Q1020 NOSIG
Loading
Personal Weather Stations






























Interactive Weather Map
Tropical Storm Tracking
New forecast layout! Learn more

10-Day Weather Forecast

Advertisements
Track Severe Weather on mobile